createdAt,value
2022-12-27T00:02:49.220Z,15.79
2022-12-27T00:12:50.750Z,15.77
2022-12-27T00:22:52.122Z,15.77
2022-12-27T00:32:53.659Z,15.74
2022-12-27T00:42:55.032Z,15.73
2022-12-27T00:52:56.438Z,15.73
2022-12-27T01:02:57.828Z,15.74
2022-12-27T01:13:02.696Z,15.72
2022-12-27T01:23:04.062Z,15.65
2022-12-27T01:33:05.433Z,15.64
2022-12-27T01:43:08.862Z,15.60
2022-12-27T01:53:17.778Z,15.59
2022-12-27T02:03:33.178Z,15.58
2022-12-27T02:13:35.973Z,15.60
2022-12-27T02:24:06.647Z,15.57
2022-12-27T02:34:15.818Z,15.55
2022-12-27T02:44:36.641Z,15.51
2022-12-27T02:54:53.695Z,15.49
2022-12-27T03:05:30.694Z,15.48
2022-12-27T03:15:55.541Z,15.41
2022-12-27T03:25:57.054Z,15.39
2022-12-27T03:36:17.106Z,15.38
2022-12-27T03:46:35.815Z,15.37
2022-12-27T03:56:37.644Z,15.34
2022-12-27T04:06:39.009Z,15.35
2022-12-27T04:16:59.006Z,15.34
2022-12-27T04:27:18.935Z,15.35
2022-12-27T04:37:20.347Z,15.28
2022-12-27T04:47:40.356Z,15.28
2022-12-27T04:57:41.745Z,15.25
2022-12-27T05:08:01.783Z,15.26
2022-12-27T05:18:03.472Z,15.27
2022-12-27T05:28:05.238Z,15.44
2022-12-27T05:38:06.823Z,15.65
2022-12-27T05:48:08.200Z,15.87
2022-12-27T05:58:09.721Z,16.11
2022-12-27T06:08:11.271Z,16.25
2022-12-27T06:18:12.662Z,16.43
2022-12-27T06:28:14.057Z,16.57
2022-12-27T06:38:15.456Z,16.62
2022-12-27T06:48:16.973Z,16.63
2022-12-27T06:58:18.438Z,16.57
2022-12-27T07:08:19.868Z,16.67
2022-12-27T07:18:21.854Z,16.76
2022-12-27T07:28:23.228Z,16.81
2022-12-27T07:38:24.622Z,16.86
2022-12-27T07:48:26.009Z,16.89
2022-12-27T07:58:27.392Z,16.88
2022-12-27T08:08:33.401Z,16.87
2022-12-27T08:18:34.781Z,16.95
2022-12-27T08:28:36.311Z,17.05
2022-12-27T08:38:38.204Z,17.21
2022-12-27T08:48:39.771Z,17.29
2022-12-27T08:58:41.324Z,17.41
2022-12-27T09:08:44.295Z,17.62
2022-12-27T09:18:47.598Z,17.79
2022-12-27T09:28:49.195Z,17.86
2022-12-27T09:38:52.494Z,17.98
2022-12-27T09:48:54.108Z,17.92
2022-12-27T09:58:58.585Z,17.97
2022-12-27T10:09:04.712Z,17.90
2022-12-27T10:19:13.463Z,17.96
2022-12-27T10:29:21.369Z,17.95
2022-12-27T10:39:29.390Z,17.93
2022-12-27T10:49:34.136Z,17.91
2022-12-27T10:59:35.508Z,17.87
2022-12-27T11:09:37.985Z,17.91
2022-12-27T11:19:41.283Z,17.94
2022-12-27T11:29:42.683Z,17.96
2022-12-27T11:39:44.933Z,17.91
2022-12-27T11:49:50.966Z,17.88
2022-12-27T12:00:26.624Z,17.87
2022-12-27T12:10:30.571Z,17.92
2022-12-27T12:20:36.281Z,17.93
2022-12-27T12:30:56.490Z,17.93
2022-12-27T12:41:22.011Z,17.92
2022-12-27T12:51:50.170Z,17.92
2022-12-27T13:02:13.611Z,17.91
2022-12-27T13:12:52.299Z,17.90
2022-12-27T13:23:13.881Z,17.85
2022-12-27T13:33:30.661Z,17.77
2022-12-27T13:43:36.746Z,17.70
2022-12-27T13:54:11.004Z,17.67
2022-12-27T14:04:39.781Z,17.60
2022-12-27T14:14:41.341Z,17.54
2022-12-27T14:25:12.144Z,17.45
2022-12-27T14:35:47.721Z,17.39
2022-12-27T14:46:23.752Z,17.30
2022-12-27T14:56:31.293Z,17.24
2022-12-27T15:06:50.837Z,17.17
2022-12-27T15:16:55.555Z,17.11
2022-12-27T15:27:24.816Z,17.03
2022-12-27T15:37:47.811Z,16.96
2022-12-27T15:48:06.916Z,16.90
2022-12-27T15:58:19.416Z,16.83
2022-12-27T16:08:32.178Z,16.79
2022-12-27T16:18:48.873Z,16.71
2022-12-27T16:29:01.026Z,16.66
2022-12-27T16:39:11.544Z,16.62
2022-12-27T16:49:27.990Z,16.55
2022-12-27T16:59:57.312Z,16.50
2022-12-27T17:10:20.564Z,16.47
2022-12-27T17:20:22.037Z,16.38
2022-12-27T17:30:42.348Z,16.33
2022-12-27T17:40:59.868Z,16.25
2022-12-27T17:51:03.390Z,16.22
2022-12-27T18:01:04.845Z,16.18
2022-12-27T18:11:06.217Z,16.11
2022-12-27T18:21:21.708Z,16.08
2022-12-27T18:31:36.004Z,16.02
2022-12-27T18:41:40.991Z,15.99
2022-12-27T18:51:42.401Z,15.95
2022-12-27T19:01:45.037Z,15.93
2022-12-27T19:12:01.611Z,15.89
2022-12-27T19:22:03.147Z,15.85
2022-12-27T19:32:08.151Z,15.81
2022-12-27T19:42:14.111Z,15.76
2022-12-27T19:52:17.680Z,15.68
2022-12-27T20:02:20.593Z,15.65
2022-12-27T20:12:22.619Z,15.59
2022-12-27T20:22:24.043Z,15.56
2022-12-27T20:32:26.735Z,15.55
2022-12-27T20:42:28.942Z,15.52
2022-12-27T20:52:31.276Z,15.47
2022-12-27T21:02:33.331Z,15.45
2022-12-27T21:12:35.437Z,15.36
2022-12-27T21:22:36.852Z,15.36
2022-12-27T21:32:38.416Z,15.33
2022-12-27T21:42:39.785Z,15.34
2022-12-27T21:52:41.354Z,15.31
2022-12-27T22:02:43.109Z,15.30
2022-12-27T22:12:44.722Z,15.27
2022-12-27T22:22:46.237Z,15.24
2022-12-27T22:32:47.775Z,15.24
2022-12-27T22:42:49.304Z,15.22
2022-12-27T22:52:50.689Z,15.22
2022-12-27T23:02:53.990Z,15.21
2022-12-27T23:12:56.439Z,15.21
2022-12-27T23:22:57.828Z,15.20
2022-12-27T23:32:59.225Z,15.18
2022-12-27T23:43:25.826Z,15.19
2022-12-27T23:53:22.065Z,15.16
